Terminal Aerodrome Forecast
Issued by NWS

Home | Current Version | Previous Version | Text Only | Print | Product List | Glossary Off
Versions: 1 2 3 4 5 6 7 8 9 10 11 12 13 14 15 16 17 18 19 20 21 22

161
FTUS43 KGRB 211806 AAA
TAFAUW
TAF AMD
KAUW 211806Z 2118/2218 24005KT P6SM BKN019
     FM211900 24012G19KT P6SM SCT040 BKN100
     FM220100 25005KT P6SM SCT040
     FM220600 29004KT 5SM BR SCT150
     FM221300 33004KT P6SM SCT200=

USA.gov is the U.S. government's official web portal to all federal, state and local government web resources and services.